sensor_id;sensor_type;location;lat;lon;timestamp;P1;durP1;ratioP1;P2;durP2;ratioP2
11829;SDS011;5972;42.134;24.718;2023-11-21T00:00:00;2.80;;;2.00;;
11829;SDS011;5972;42.134;24.718;2023-11-21T00:02:27;3.03;;;1.80;;
11829;SDS011;5972;42.134;24.718;2023-11-21T00:04:55;2.63;;;1.90;;
11829;SDS011;5972;42.134;24.718;2023-11-21T00:07:22;2.38;;;1.50;;
11829;SDS011;5972;42.134;24.718;2023-11-21T00:09:49;2.77;;;2.00;;
11829;SDS011;5972;42.134;24.718;2023-11-21T00:12:16;1.70;;;1.50;;
11829;SDS011;5972;42.134;24.718;2023-11-21T00:14:43;1.93;;;1.53;;
11829;SDS011;5972;42.134;24.718;2023-11-21T00:17:10;2.00;;;1.67;;
11829;SDS011;5972;42.134;24.718;2023-11-21T00:19:36;4.00;;;1.90;;
11829;SDS011;5972;42.134;24.718;2023-11-21T00:22:05;1.83;;;1.53;;
11829;SDS011;5972;42.134;24.718;2023-11-21T00:24:32;2.40;;;1.42;;
11829;SDS011;5972;42.134;24.718;2023-11-21T00:26:59;2.70;;;1.60;;
11829;SDS011;5972;42.134;24.718;2023-11-21T00:29:26;3.40;;;1.93;;
11829;SDS011;5972;42.134;24.718;2023-11-21T00:31:53;4.63;;;2.10;;
11829;SDS011;5972;42.134;24.718;2023-11-21T00:34:19;3.97;;;1.90;;
11829;SDS011;5972;42.134;24.718;2023-11-21T00:36:46;2.63;;;1.98;;
11829;SDS011;5972;42.134;24.718;2023-11-21T00:39:15;4.90;;;2.28;;
11829;SDS011;5972;42.134;24.718;2023-11-21T00:41:41;3.67;;;2.07;;
11829;SDS011;5972;42.134;24.718;2023-11-21T00:44:09;1.50;;;1.40;;
11829;SDS011;5972;42.134;24.718;2023-11-21T00:46:36;2.23;;;1.37;;
11829;SDS011;5972;42.134;24.718;2023-11-21T00:49:03;2.30;;;1.33;;
11829;SDS011;5972;42.134;24.718;2023-11-21T00:51:30;2.13;;;1.50;;
11829;SDS011;5972;42.134;24.718;2023-11-21T00:53:58;2.63;;;1.50;;
11829;SDS011;5972;42.134;24.718;2023-11-21T00:56:26;2.57;;;1.50;;
11829;SDS011;5972;42.134;24.718;2023-11-21T00:58:53;1.50;;;1.40;;
11829;SDS011;5972;42.134;24.718;2023-11-21T01:01:20;1.50;;;1.40;;
11829;SDS011;5972;42.134;24.718;2023-11-21T01:03:48;1.83;;;1.63;;
11829;SDS011;5972;42.134;24.718;2023-11-21T01:06:15;1.60;;;1.50;;
11829;SDS011;5972;42.134;24.718;2023-11-21T01:08:43;2.20;;;1.50;;
11829;SDS011;5972;42.134;24.718;2023-11-21T01:11:10;1.60;;;1.50;;
11829;SDS011;5972;42.134;24.718;2023-11-21T01:13:39;2.20;;;1.60;;
11829;SDS011;5972;42.134;24.718;2023-11-21T01:16:07;3.60;;;1.50;;
11829;SDS011;5972;42.134;24.718;2023-11-21T01:18:35;1.77;;;1.67;;
11829;SDS011;5972;42.134;24.718;2023-11-21T01:21:02;2.10;;;1.90;;
11829;SDS011;5972;42.134;24.718;2023-11-21T01:23:29;3.70;;;2.17;;
11829;SDS011;5972;42.134;24.718;2023-11-21T01:25:56;2.30;;;2.03;;
11829;SDS011;5972;42.134;24.718;2023-11-21T01:28:23;2.53;;;2.30;;
11829;SDS011;5972;42.134;24.718;2023-11-21T01:30:53;3.23;;;2.30;;
11829;SDS011;5972;42.134;24.718;2023-11-21T01:33:21;5.43;;;2.70;;
11829;SDS011;5972;42.134;24.718;2023-11-21T01:35:50;3.70;;;2.67;;
11829;SDS011;5972;42.134;24.718;2023-11-21T01:38:16;4.40;;;2.50;;
11829;SDS011;5972;42.134;24.718;2023-11-21T01:40:42;3.63;;;2.53;;
11829;SDS011;5972;42.134;24.718;2023-11-21T01:43:09;3.93;;;2.80;;
11829;SDS011;5972;42.134;24.718;2023-11-21T01:45:36;4.50;;;2.73;;
11829;SDS011;5972;42.134;24.718;2023-11-21T01:48:05;3.90;;;2.57;;
11829;SDS011;5972;42.134;24.718;2023-11-21T01:50:33;5.27;;;3.00;;
11829;SDS011;5972;42.134;24.718;2023-11-21T01:53:00;6.43;;;3.07;;
11829;SDS011;5972;42.134;24.718;2023-11-21T01:55:28;6.33;;;2.90;;
11829;SDS011;5972;42.134;24.718;2023-11-21T01:57:56;4.57;;;3.07;;
11829;SDS011;5972;42.134;24.718;2023-11-21T02:00:23;4.30;;;2.97;;
11829;SDS011;5972;42.134;24.718;2023-11-21T02:02:51;3.47;;;2.77;;
11829;SDS011;5972;42.134;24.718;2023-11-21T02:05:19;7.77;;;2.73;;
11829;SDS011;5972;42.134;24.718;2023-11-21T02:07:46;3.63;;;2.83;;
11829;SDS011;5972;42.134;24.718;2023-11-21T02:10:14;3.30;;;2.60;;
11829;SDS011;5972;42.134;24.718;2023-11-21T02:12:41;3.93;;;2.60;;
11829;SDS011;5972;42.134;24.718;2023-11-21T02:15:09;4.13;;;3.00;;
11829;SDS011;5972;42.134;24.718;2023-11-21T02:17:45;6.13;;;3.60;;
11829;SDS011;5972;42.134;24.718;2023-11-21T02:20:12;5.80;;;2.60;;
11829;SDS011;5972;42.134;24.718;2023-11-21T02:22:42;4.57;;;3.00;;
11829;SDS011;5972;42.134;24.718;2023-11-21T02:25:12;4.50;;;3.00;;
11829;SDS011;5972;42.134;24.718;2023-11-21T02:27:39;10.20;;;3.33;;
11829;SDS011;5972;42.134;24.718;2023-11-21T02:30:07;6.93;;;3.17;;
11829;SDS011;5972;42.134;24.718;2023-11-21T02:32:37;5.37;;;3.20;;
11829;SDS011;5972;42.134;24.718;2023-11-21T02:35:05;4.60;;;2.60;;
11829;SDS011;5972;42.134;24.718;2023-11-21T02:37:33;5.87;;;3.27;;
11829;SDS011;5972;42.134;24.718;2023-11-21T02:40:00;5.03;;;3.37;;
11829;SDS011;5972;42.134;24.718;2023-11-21T02:42:32;6.60;;;3.53;;
11829;SDS011;5972;42.134;24.718;2023-11-21T02:45:37;7.67;;;2.97;;
11829;SDS011;5972;42.134;24.718;2023-11-21T02:51:52;7.17;;;3.73;;
11829;SDS011;5972;42.134;24.718;2023-11-21T02:54:19;12.40;;;3.63;;
11829;SDS011;5972;42.134;24.718;2023-11-21T02:56:47;8.53;;;4.30;;
11829;SDS011;5972;42.134;24.718;2023-11-21T02:59:16;10.23;;;3.93;;
11829;SDS011;5972;42.134;24.718;2023-11-21T03:01:43;9.57;;;3.63;;
11829;SDS011;5972;42.134;24.718;2023-11-21T03:04:09;13.53;;;4.27;;
11829;SDS011;5972;42.134;24.718;2023-11-21T03:06:42;10.63;;;3.90;;
11829;SDS011;5972;42.134;24.718;2023-11-21T03:09:09;10.43;;;4.27;;
11829;SDS011;5972;42.134;24.718;2023-11-21T03:11:37;11.90;;;5.30;;
11829;SDS011;5972;42.134;24.718;2023-11-21T03:14:04;9.73;;;4.80;;
11829;SDS011;5972;42.134;24.718;2023-11-21T03:16:33;15.03;;;4.90;;
11829;SDS011;5972;42.134;24.718;2023-11-21T03:19:00;17.03;;;5.50;;
11829;SDS011;5972;42.134;24.718;2023-11-21T03:21:27;15.60;;;5.27;;
11829;SDS011;5972;42.134;24.718;2023-11-21T03:23:54;16.57;;;5.23;;
11829;SDS011;5972;42.134;24.718;2023-11-21T03:26:21;15.80;;;6.13;;
11829;SDS011;5972;42.134;24.718;2023-11-21T03:28:48;17.60;;;6.70;;
11829;SDS011;5972;42.134;24.718;2023-11-21T03:31:15;26.23;;;8.53;;
11829;SDS011;5972;42.134;24.718;2023-11-21T03:33:45;27.70;;;9.13;;
11829;SDS011;5972;42.134;24.718;2023-11-21T03:36:12;15.90;;;6.50;;
11829;SDS011;5972;42.134;24.718;2023-11-21T03:38:40;12.83;;;6.53;;
11829;SDS011;5972;42.134;24.718;2023-11-21T03:41:07;12.80;;;6.23;;
11829;SDS011;5972;42.134;24.718;2023-11-21T03:43:35;19.43;;;6.60;;
11829;SDS011;5972;42.134;24.718;2023-11-21T03:46:02;12.00;;;6.10;;
11829;SDS011;5972;42.134;24.718;2023-11-21T03:48:29;14.10;;;6.30;;
11829;SDS011;5972;42.134;24.718;2023-11-21T03:50:57;12.83;;;7.30;;
11829;SDS011;5972;42.134;24.718;2023-11-21T03:53:24;18.60;;;7.87;;
11829;SDS011;5972;42.134;24.718;2023-11-21T03:55:51;16.17;;;7.47;;
11829;SDS011;5972;42.134;24.718;2023-11-21T03:58:18;34.63;;;26.47;;
11829;SDS011;5972;42.134;24.718;2023-11-21T04:00:46;18.97;;;9.67;;
11829;SDS011;5972;42.134;24.718;2023-11-21T04:03:14;16.47;;;8.20;;
11829;SDS011;5972;42.134;24.718;2023-11-21T04:05:41;31.33;;;12.10;;
11829;SDS011;5972;42.134;24.718;2023-11-21T04:08:09;28.50;;;11.67;;
11829;SDS011;5972;42.134;24.718;2023-11-21T04:10:36;27.93;;;11.70;;
11829;SDS011;5972;42.134;24.718;2023-11-21T04:13:04;27.50;;;11.13;;
11829;SDS011;5972;42.134;24.718;2023-11-21T04:15:31;23.43;;;10.87;;
11829;SDS011;5972;42.134;24.718;2023-11-21T04:17:58;20.37;;;10.20;;
11829;SDS011;5972;42.134;24.718;2023-11-21T04:20:25;23.20;;;9.93;;
11829;SDS011;5972;42.134;24.718;2023-11-21T04:22:52;15.30;;;7.57;;
11829;SDS011;5972;42.134;24.718;2023-11-21T04:25:21;13.57;;;7.13;;
11829;SDS011;5972;42.134;24.718;2023-11-21T04:27:48;18.80;;;7.33;;
11829;SDS011;5972;42.134;24.718;2023-11-21T04:30:15;14.53;;;7.23;;
11829;SDS011;5972;42.134;24.718;2023-11-21T04:32:42;14.07;;;7.10;;
11829;SDS011;5972;42.134;24.718;2023-11-21T04:35:09;15.53;;;7.57;;
11829;SDS011;5972;42.134;24.718;2023-11-21T04:37:36;12.43;;;7.37;;
11829;SDS011;5972;42.134;24.718;2023-11-21T04:40:04;14.50;;;7.63;;
11829;SDS011;5972;42.134;24.718;2023-11-21T04:42:34;23.23;;;7.47;;
11829;SDS011;5972;42.134;24.718;2023-11-21T04:45:01;15.27;;;7.47;;
11829;SDS011;5972;42.134;24.718;2023-11-21T04:47:33;17.07;;;8.50;;
11829;SDS011;5972;42.134;24.718;2023-11-21T04:49:59;16.27;;;8.00;;
11829;SDS011;5972;42.134;24.718;2023-11-21T04:52:26;16.83;;;8.23;;
11829;SDS011;5972;42.134;24.718;2023-11-21T04:54:53;22.20;;;8.57;;
11829;SDS011;5972;42.134;24.718;2023-11-21T04:57:22;14.73;;;7.73;;
11829;SDS011;5972;42.134;24.718;2023-11-21T04:59:50;16.77;;;6.73;;
11829;SDS011;5972;42.134;24.718;2023-11-21T05:02:17;19.77;;;7.20;;
11829;SDS011;5972;42.134;24.718;2023-11-21T05:04:46;14.30;;;7.63;;
11829;SDS011;5972;42.134;24.718;2023-11-21T05:07:13;23.73;;;8.10;;
11829;SDS011;5972;42.134;24.718;2023-11-21T05:09:41;27.97;;;8.43;;
11829;SDS011;5972;42.134;24.718;2023-11-21T05:12:09;26.90;;;8.17;;
11829;SDS011;5972;42.134;24.718;2023-11-21T05:14:37;25.77;;;8.17;;
11829;SDS011;5972;42.134;24.718;2023-11-21T05:17:05;23.53;;;7.40;;
11829;SDS011;5972;42.134;24.718;2023-11-21T05:19:33;22.03;;;8.03;;
11829;SDS011;5972;42.134;24.718;2023-11-21T05:22:01;22.93;;;7.83;;
11829;SDS011;5972;42.134;24.718;2023-11-21T05:24:28;29.70;;;9.23;;
11829;SDS011;5972;42.134;24.718;2023-11-21T05:26:55;22.53;;;8.63;;
11829;SDS011;5972;42.134;24.718;2023-11-21T05:29:23;19.10;;;7.60;;
11829;SDS011;5972;42.134;24.718;2023-11-21T05:31:50;14.10;;;7.23;;
11829;SDS011;5972;42.134;24.718;2023-11-21T05:34:19;17.20;;;6.60;;
11829;SDS011;5972;42.134;24.718;2023-11-21T05:36:49;12.00;;;6.73;;
11829;SDS011;5972;42.134;24.718;2023-11-21T05:39:16;11.93;;;5.80;;
11829;SDS011;5972;42.134;24.718;2023-11-21T05:41:44;7.60;;;5.10;;
11829;SDS011;5972;42.134;24.718;2023-11-21T05:44:11;11.63;;;6.27;;
11829;SDS011;5972;42.134;24.718;2023-11-21T05:46:39;7.93;;;5.60;;
11829;SDS011;5972;42.134;24.718;2023-11-21T05:49:08;13.07;;;6.33;;
11829;SDS011;5972;42.134;24.718;2023-11-21T05:51:36;12.57;;;6.20;;
11829;SDS011;5972;42.134;24.718;2023-11-21T05:54:21;14.33;;;6.77;;
11829;SDS011;5972;42.134;24.718;2023-11-21T05:56:49;11.07;;;6.67;;
11829;SDS011;5972;42.134;24.718;2023-11-21T05:59:15;11.47;;;6.37;;
11829;SDS011;5972;42.134;24.718;2023-11-21T06:01:42;17.70;;;7.27;;
11829;SDS011;5972;42.134;24.718;2023-11-21T06:04:11;15.20;;;7.13;;
11829;SDS011;5972;42.134;24.718;2023-11-21T06:06:39;19.57;;;7.00;;
11829;SDS011;5972;42.134;24.718;2023-11-21T06:09:06;11.37;;;6.53;;
11829;SDS011;5972;42.134;24.718;2023-11-21T06:11:34;13.23;;;7.13;;
11829;SDS011;5972;42.134;24.718;2023-11-21T06:14:01;13.40;;;6.23;;
11829;SDS011;5972;42.134;24.718;2023-11-21T06:16:28;16.00;;;6.20;;
11829;SDS011;5972;42.134;24.718;2023-11-21T06:18:55;12.33;;;5.53;;
11829;SDS011;5972;42.134;24.718;2023-11-21T06:21:22;13.80;;;6.10;;
11829;SDS011;5972;42.134;24.718;2023-11-21T06:23:50;10.53;;;6.30;;
11829;SDS011;5972;42.134;24.718;2023-11-21T06:26:18;12.10;;;5.53;;
11829;SDS011;5972;42.134;24.718;2023-11-21T06:28:45;11.93;;;5.70;;
11829;SDS011;5972;42.134;24.718;2023-11-21T06:31:12;10.57;;;5.00;;
11829;SDS011;5972;42.134;24.718;2023-11-21T06:33:39;14.33;;;6.80;;
11829;SDS011;5972;42.134;24.718;2023-11-21T06:36:07;11.07;;;5.83;;
11829;SDS011;5972;42.134;24.718;2023-11-21T06:38:36;14.47;;;5.47;;
11829;SDS011;5972;42.134;24.718;2023-11-21T06:41:05;12.47;;;6.50;;
11829;SDS011;5972;42.134;24.718;2023-11-21T06:43:33;10.63;;;6.10;;
11829;SDS011;5972;42.134;24.718;2023-11-21T06:46:01;11.87;;;5.33;;
11829;SDS011;5972;42.134;24.718;2023-11-21T06:48:29;8.73;;;5.40;;
11829;SDS011;5972;42.134;24.718;2023-11-21T06:50:56;8.70;;;4.87;;
11829;SDS011;5972;42.134;24.718;2023-11-21T06:53:23;7.50;;;4.67;;
11829;SDS011;5972;42.134;24.718;2023-11-21T06:55:50;7.23;;;4.80;;
11829;SDS011;5972;42.134;24.718;2023-11-21T06:58:18;9.27;;;5.10;;
11829;SDS011;5972;42.134;24.718;2023-11-21T07:00:45;8.23;;;4.53;;
11829;SDS011;5972;42.134;24.718;2023-11-21T07:03:13;9.63;;;5.53;;
11829;SDS011;5972;42.134;24.718;2023-11-21T07:05:40;10.33;;;5.27;;
11829;SDS011;5972;42.134;24.718;2023-11-21T07:08:07;9.63;;;5.30;;
11829;SDS011;5972;42.134;24.718;2023-11-21T07:10:35;14.17;;;5.50;;
11829;SDS011;5972;42.134;24.718;2023-11-21T07:13:03;8.50;;;4.90;;
11829;SDS011;5972;42.134;24.718;2023-11-21T07:15:31;11.87;;;5.03;;
11829;SDS011;5972;42.134;24.718;2023-11-21T07:17:59;12.33;;;5.63;;
11829;SDS011;5972;42.134;24.718;2023-11-21T07:20:26;6.93;;;5.07;;
11829;SDS011;5972;42.134;24.718;2023-11-21T07:22:53;9.30;;;5.50;;
11829;SDS011;5972;42.134;24.718;2023-11-21T07:25:21;11.73;;;5.87;;
11829;SDS011;5972;42.134;24.718;2023-11-21T07:27:48;9.20;;;5.47;;
11829;SDS011;5972;42.134;24.718;2023-11-21T07:30:15;11.70;;;6.03;;
11829;SDS011;5972;42.134;24.718;2023-11-21T07:32:44;10.10;;;6.22;;
11829;SDS011;5972;42.134;24.718;2023-11-21T07:35:15;12.68;;;6.18;;
11829;SDS011;5972;42.134;24.718;2023-11-21T07:37:42;11.38;;;5.88;;
11829;SDS011;5972;42.134;24.718;2023-11-21T07:40:09;11.15;;;5.32;;
11829;SDS011;5972;42.134;24.718;2023-11-21T07:42:37;10.73;;;4.88;;
11829;SDS011;5972;42.134;24.718;2023-11-21T07:45:05;6.82;;;4.70;;
11829;SDS011;5972;42.134;24.718;2023-11-21T07:50:20;10.45;;;5.53;;
11829;SDS011;5972;42.134;24.718;2023-11-21T07:53:17;12.70;;;5.25;;
11829;SDS011;5972;42.134;24.718;2023-11-21T07:56:08;11.10;;;5.13;;
11829;SDS011;5972;42.134;24.718;2023-11-21T07:59:09;14.15;;;5.80;;
11829;SDS011;5972;42.134;24.718;2023-11-21T08:05:40;15.02;;;7.10;;
11829;SDS011;5972;42.134;24.718;2023-11-21T08:11:56;12.00;;;5.50;;
11829;SDS011;5972;42.134;24.718;2023-11-21T08:15:20;15.25;;;5.70;;
11829;SDS011;5972;42.134;24.718;2023-11-21T08:21:12;13.95;;;4.93;;
11829;SDS011;5972;42.134;24.718;2023-11-21T08:23:46;12.52;;;5.07;;
11829;SDS011;5972;42.134;24.718;2023-11-21T08:26:26;7.45;;;4.55;;
11829;SDS011;5972;42.134;24.718;2023-11-21T08:29:36;11.77;;;4.32;;
11829;SDS011;5972;42.134;24.718;2023-11-21T08:35:59;9.27;;;4.45;;
11829;SDS011;5972;42.134;24.718;2023-11-21T08:39:22;7.38;;;4.18;;
11829;SDS011;5972;42.134;24.718;2023-11-21T08:45:13;11.02;;;4.60;;
11829;SDS011;5972;42.134;24.718;2023-11-21T08:47:55;7.53;;;4.00;;
11829;SDS011;5972;42.134;24.718;2023-11-21T08:50:47;8.32;;;4.25;;
11829;SDS011;5972;42.134;24.718;2023-11-21T08:53:54;4.28;;;3.38;;
11829;SDS011;5972;42.134;24.718;2023-11-21T09:00:12;10.02;;;3.60;;
11829;SDS011;5972;42.134;24.718;2023-11-21T09:03:04;7.00;;;3.80;;
11829;SDS011;5972;42.134;24.718;2023-11-21T09:05:39;10.88;;;3.85;;
11829;SDS011;5972;42.134;24.718;2023-11-21T09:08:11;13.35;;;3.63;;
11829;SDS011;5972;42.134;24.718;2023-11-21T09:11:25;7.20;;;3.38;;
11829;SDS011;5972;42.134;24.718;2023-11-21T09:33:30;6.45;;;3.45;;
11829;SDS011;5972;42.134;24.718;2023-11-21T09:40:00;7.00;;;3.70;;
11829;SDS011;5972;42.134;24.718;2023-11-21T09:42:35;8.05;;;3.42;;
11829;SDS011;5972;42.134;24.718;2023-11-21T09:45:29;11.63;;;3.45;;
11829;SDS011;5972;42.134;24.718;2023-11-21T09:48:21;7.28;;;3.47;;
11829;SDS011;5972;42.134;24.718;2023-11-21T09:51:11;12.07;;;3.75;;
11829;SDS011;5972;42.134;24.718;2023-11-21T09:53:50;5.60;;;3.55;;
11829;SDS011;5972;42.134;24.718;2023-11-21T09:56:45;6.03;;;3.33;;
11829;SDS011;5972;42.134;24.718;2023-11-21T09:59:44;8.50;;;3.58;;
11829;SDS011;5972;42.134;24.718;2023-11-21T10:02:24;5.72;;;3.90;;
11829;SDS011;5972;42.134;24.718;2023-11-21T10:05:25;7.75;;;3.97;;
11829;SDS011;5972;42.134;24.718;2023-11-21T10:08:18;7.65;;;4.15;;
11829;SDS011;5972;42.134;24.718;2023-11-21T10:11:04;10.95;;;4.07;;
11829;SDS011;5972;42.134;24.718;2023-11-21T10:13:48;6.07;;;4.18;;
11829;SDS011;5972;42.134;24.718;2023-11-21T10:17:06;7.63;;;3.97;;
11829;SDS011;5972;42.134;24.718;2023-11-21T10:19:37;5.72;;;4.00;;
11829;SDS011;5972;42.134;24.718;2023-11-21T10:22:23;18.75;;;4.97;;
11829;SDS011;5972;42.134;24.718;2023-11-21T10:25:11;9.68;;;4.35;;
11829;SDS011;5972;42.134;24.718;2023-11-21T10:28:13;9.13;;;4.72;;
11829;SDS011;5972;42.134;24.718;2023-11-21T10:30:59;11.18;;;5.03;;
11829;SDS011;5972;42.134;24.718;2023-11-21T10:33:34;10.18;;;5.07;;
11829;SDS011;5972;42.134;24.718;2023-11-21T10:36:19;13.65;;;4.90;;
11829;SDS011;5972;42.134;24.718;2023-11-21T10:41:58;9.13;;;5.60;;
11829;SDS011;5972;42.134;24.718;2023-11-21T10:45:08;13.82;;;5.93;;
11829;SDS011;5972;42.134;24.718;2023-11-21T10:48:18;9.60;;;5.38;;
11829;SDS011;5972;42.134;24.718;2023-11-21T10:51:23;12.27;;;5.63;;
11829;SDS011;5972;42.134;24.718;2023-11-21T10:54:40;9.10;;;4.93;;
11829;SDS011;5972;42.134;24.718;2023-11-21T11:20:22;10.52;;;5.32;;
11829;SDS011;5972;42.134;24.718;2023-11-21T11:23:17;10.90;;;5.63;;
11829;SDS011;5972;42.134;24.718;2023-11-21T11:26:08;8.88;;;5.55;;
11829;SDS011;5972;42.134;24.718;2023-11-21T11:28:42;10.23;;;6.15;;
11829;SDS011;5972;42.134;24.718;2023-11-21T11:31:19;9.85;;;6.30;;
11829;SDS011;5972;42.134;24.718;2023-11-21T11:34:19;12.48;;;7.57;;
11829;SDS011;5972;42.134;24.718;2023-11-21T11:37:01;16.17;;;7.75;;
11829;SDS011;5972;42.134;24.718;2023-11-21T11:39:35;12.32;;;7.80;;
11829;SDS011;5972;42.134;24.718;2023-11-21T11:42:04;11.70;;;6.13;;
11829;SDS011;5972;42.134;24.718;2023-11-21T11:44:50;13.27;;;6.85;;
11829;SDS011;5972;42.134;24.718;2023-11-21T11:47:22;14.95;;;6.50;;
11829;SDS011;5972;42.134;24.718;2023-11-21T11:50:06;13.35;;;6.43;;
11829;SDS011;5972;42.134;24.718;2023-11-21T11:52:40;12.27;;;6.18;;
11829;SDS011;5972;42.134;24.718;2023-11-21T11:55:09;12.45;;;6.22;;
11829;SDS011;5972;42.134;24.718;2023-11-21T11:57:41;10.73;;;5.80;;
11829;SDS011;5972;42.134;24.718;2023-11-21T12:00:22;9.23;;;5.57;;
11829;SDS011;5972;42.134;24.718;2023-11-21T12:03:07;13.68;;;5.60;;
11829;SDS011;5972;42.134;24.718;2023-11-21T12:05:37;17.08;;;6.78;;
11829;SDS011;5972;42.134;24.718;2023-11-21T12:08:08;17.70;;;6.32;;
11829;SDS011;5972;42.134;24.718;2023-11-21T12:10:36;12.00;;;6.03;;
11829;SDS011;5972;42.134;24.718;2023-11-21T12:13:05;10.43;;;5.80;;
11829;SDS011;5972;42.134;24.718;2023-11-21T12:15:34;12.10;;;5.60;;
11829;SDS011;5972;42.134;24.718;2023-11-21T12:18:05;7.97;;;5.57;;
11829;SDS011;5972;42.134;24.718;2023-11-21T12:20:32;8.10;;;5.00;;
11829;SDS011;5972;42.134;24.718;2023-11-21T12:23:03;8.90;;;5.65;;
11829;SDS011;5972;42.134;24.718;2023-11-21T12:25:33;13.50;;;5.47;;
11829;SDS011;5972;42.134;24.718;2023-11-21T12:28:02;7.35;;;5.10;;
11829;SDS011;5972;42.134;24.718;2023-11-21T12:30:31;9.52;;;5.15;;
11829;SDS011;5972;42.134;24.718;2023-11-21T12:33:01;11.07;;;5.30;;
11829;SDS011;5972;42.134;24.718;2023-11-21T12:35:33;10.13;;;5.18;;
11829;SDS011;5972;42.134;24.718;2023-11-21T12:38:01;10.57;;;5.60;;
11829;SDS011;5972;42.134;24.718;2023-11-21T12:40:35;7.13;;;5.50;;
11829;SDS011;5972;42.134;24.718;2023-11-21T12:43:03;8.73;;;5.65;;
11829;SDS011;5972;42.134;24.718;2023-11-21T12:45:32;11.93;;;6.75;;
11829;SDS011;5972;42.134;24.718;2023-11-21T12:48:06;11.60;;;6.20;;
11829;SDS011;5972;42.134;24.718;2023-11-21T12:50:38;9.65;;;6.40;;
11829;SDS011;5972;42.134;24.718;2023-11-21T12:53:07;8.98;;;6.50;;
11829;SDS011;5972;42.134;24.718;2023-11-21T12:55:38;16.17;;;6.75;;
11829;SDS011;5972;42.134;24.718;2023-11-21T12:58:07;10.48;;;6.63;;
11829;SDS011;5972;42.134;24.718;2023-11-21T13:00:36;11.85;;;6.40;;
11829;SDS011;5972;42.134;24.718;2023-11-21T13:03:05;13.80;;;6.78;;
11829;SDS011;5972;42.134;24.718;2023-11-21T13:05:34;9.27;;;5.57;;
11829;SDS011;5972;42.134;24.718;2023-11-21T13:08:06;12.30;;;5.95;;
11829;SDS011;5972;42.134;24.718;2023-11-21T13:10:35;12.90;;;5.88;;
11829;SDS011;5972;42.134;24.718;2023-11-21T13:13:05;15.75;;;8.10;;
11829;SDS011;5972;42.134;24.718;2023-11-21T13:15:47;18.90;;;9.38;;
11829;SDS011;5972;42.134;24.718;2023-11-21T13:18:15;28.15;;;11.50;;
11829;SDS011;5972;42.134;24.718;2023-11-21T13:20:49;16.70;;;7.70;;
11829;SDS011;5972;42.134;24.718;2023-11-21T13:23:17;8.80;;;5.63;;
11829;SDS011;5972;42.134;24.718;2023-11-21T13:25:44;10.82;;;5.38;;
11829;SDS011;5972;42.134;24.718;2023-11-21T13:28:14;9.40;;;5.10;;
11829;SDS011;5972;42.134;24.718;2023-11-21T13:30:43;8.68;;;5.35;;
11829;SDS011;5972;42.134;24.718;2023-11-21T13:33:10;8.65;;;5.75;;
11829;SDS011;5972;42.134;24.718;2023-11-21T13:35:42;5.80;;;4.93;;
11829;SDS011;5972;42.134;24.718;2023-11-21T13:38:13;8.57;;;5.47;;
11829;SDS011;5972;42.134;24.718;2023-11-21T13:40:42;8.98;;;4.70;;
11829;SDS011;5972;42.134;24.718;2023-11-21T13:43:20;10.77;;;6.40;;
11829;SDS011;5972;42.134;24.718;2023-11-21T13:45:52;10.75;;;6.22;;
11829;SDS011;5972;42.134;24.718;2023-11-21T13:48:27;10.70;;;6.60;;
11829;SDS011;5972;42.134;24.718;2023-11-21T13:51:05;12.27;;;6.28;;
11829;SDS011;5972;42.134;24.718;2023-11-21T13:53:42;12.68;;;7.15;;
11829;SDS011;5972;42.134;24.718;2023-11-21T13:56:13;12.32;;;6.47;;
11829;SDS011;5972;42.134;24.718;2023-11-21T13:58:53;8.15;;;6.95;;
11829;SDS011;5972;42.134;24.718;2023-11-21T14:01:32;14.02;;;7.25;;
11829;SDS011;5972;42.134;24.718;2023-11-21T14:04:24;13.65;;;6.70;;
11829;SDS011;5972;42.134;24.718;2023-11-21T14:07:22;9.60;;;7.28;;
11829;SDS011;5972;42.134;24.718;2023-11-21T14:10:00;12.15;;;7.05;;
11829;SDS011;5972;42.134;24.718;2023-11-21T14:12:39;7.55;;;6.25;;
11829;SDS011;5972;42.134;24.718;2023-11-21T14:15:09;11.50;;;6.80;;
11829;SDS011;5972;42.134;24.718;2023-11-21T14:17:48;14.88;;;7.40;;
11829;SDS011;5972;42.134;24.718;2023-11-21T14:20:29;13.60;;;7.18;;
11829;SDS011;5972;42.134;24.718;2023-11-21T14:23:07;12.95;;;6.97;;
11829;SDS011;5972;42.134;24.718;2023-11-21T14:25:33;15.13;;;7.38;;
11829;SDS011;5972;42.134;24.718;2023-11-21T14:28:02;13.07;;;7.32;;
11829;SDS011;5972;42.134;24.718;2023-11-21T14:30:39;16.13;;;6.90;;
11829;SDS011;5972;42.134;24.718;2023-11-21T14:33:08;14.15;;;7.53;;
11829;SDS011;5972;42.134;24.718;2023-11-21T14:38:11;15.35;;;7.00;;
11829;SDS011;5972;42.134;24.718;2023-11-21T14:40:42;14.07;;;6.95;;
11829;SDS011;5972;42.134;24.718;2023-11-21T14:43:10;12.77;;;7.18;;
11829;SDS011;5972;42.134;24.718;2023-11-21T14:45:39;21.35;;;7.65;;
11829;SDS011;5972;42.134;24.718;2023-11-21T14:48:20;14.70;;;6.80;;
11829;SDS011;5972;42.134;24.718;2023-11-21T14:51:09;18.42;;;7.32;;
11829;SDS011;5972;42.134;24.718;2023-11-21T14:54:23;18.05;;;7.25;;
11829;SDS011;5972;42.134;24.718;2023-11-21T14:57:10;33.80;;;14.18;;
11829;SDS011;5972;42.134;24.718;2023-11-21T15:00:01;29.80;;;8.05;;
11829;SDS011;5972;42.134;24.718;2023-11-21T15:03:13;19.98;;;8.43;;
11829;SDS011;5972;42.134;24.718;2023-11-21T15:06:05;20.95;;;9.02;;
11829;SDS011;5972;42.134;24.718;2023-11-21T15:09:01;28.35;;;8.98;;
11829;SDS011;5972;42.134;24.718;2023-11-21T15:11:45;16.40;;;8.50;;
11829;SDS011;5972;42.134;24.718;2023-11-21T15:14:28;22.17;;;8.68;;
11829;SDS011;5972;42.134;24.718;2023-11-21T15:17:01;23.50;;;8.85;;
11829;SDS011;5972;42.134;24.718;2023-11-21T15:19:45;29.02;;;9.35;;
11829;SDS011;5972;42.134;24.718;2023-11-21T15:26:01;18.15;;;9.60;;
11829;SDS011;5972;42.134;24.718;2023-11-21T15:31:33;23.42;;;12.18;;
11829;SDS011;5972;42.134;24.718;2023-11-21T15:34:48;21.25;;;10.82;;
11829;SDS011;5972;42.134;24.718;2023-11-21T15:43:46;25.63;;;12.68;;
11829;SDS011;5972;42.134;24.718;2023-11-21T16:31:52;25.83;;;14.85;;
11829;SDS011;5972;42.134;24.718;2023-11-21T16:34:39;26.45;;;12.00;;
11829;SDS011;5972;42.134;24.718;2023-11-21T19:59:51;34.20;;;20.77;;
11829;SDS011;5972;42.134;24.718;2023-11-21T20:02:21;30.27;;;19.57;;
11829;SDS011;5972;42.134;24.718;2023-11-21T20:04:48;33.03;;;21.07;;
11829;SDS011;5972;42.134;24.718;2023-11-21T20:07:15;36.23;;;21.10;;
11829;SDS011;5972;42.134;24.718;2023-11-21T20:09:46;29.73;;;18.13;;
11829;SDS011;5972;42.134;24.718;2023-11-21T20:12:14;30.10;;;19.90;;
11829;SDS011;5972;42.134;24.718;2023-11-21T20:14:41;34.97;;;20.55;;
11829;SDS011;5972;42.134;24.718;2023-11-21T20:17:09;35.05;;;20.25;;
11829;SDS011;5972;42.134;24.718;2023-11-21T20:19:36;38.17;;;18.83;;
11829;SDS011;5972;42.134;24.718;2023-11-21T20:22:03;39.88;;;19.52;;
11829;SDS011;5972;42.134;24.718;2023-11-21T20:24:30;27.33;;;15.20;;
11829;SDS011;5972;42.134;24.718;2023-11-21T20:27:00;23.38;;;14.05;;
11829;SDS011;5972;42.134;24.718;2023-11-21T20:29:27;28.15;;;15.80;;
11829;SDS011;5972;42.134;24.718;2023-11-21T20:31:56;29.70;;;14.88;;
11829;SDS011;5972;42.134;24.718;2023-11-21T20:34:25;33.30;;;14.73;;
11829;SDS011;5972;42.134;24.718;2023-11-21T20:36:51;24.45;;;14.38;;
11829;SDS011;5972;42.134;24.718;2023-11-21T20:39:19;25.70;;;14.35;;
11829;SDS011;5972;42.134;24.718;2023-11-21T20:41:46;24.67;;;13.65;;
11829;SDS011;5972;42.134;24.718;2023-11-21T20:44:13;31.05;;;16.05;;
11829;SDS011;5972;42.134;24.718;2023-11-21T20:46:40;26.02;;;14.85;;
11829;SDS011;5972;42.134;24.718;2023-11-21T20:49:08;27.58;;;16.23;;
11829;SDS011;5972;42.134;24.718;2023-11-21T20:51:36;23.50;;;13.85;;
11829;SDS011;5972;42.134;24.718;2023-11-21T20:54:03;25.08;;;13.93;;